sensor_id;sensor_type;location;lat;lon;timestamp;pressure;altitude;pressure_sealevel;temperature;humidity
71126;BME280;58785;55.566;38.058;2022-09-09T00:07:18;101019.19;;;8.27;71.12
71126;BME280;58785;55.566;38.058;2022-09-09T00:12:34;101030.66;;;8.27;71.17
71126;BME280;58785;55.566;38.058;2022-09-09T00:15:03;101032.47;;;8.27;71.02
71126;BME280;58785;55.566;38.058;2022-09-09T00:17:53;101028.13;;;8.26;71.02
71126;BME280;58785;55.566;38.058;2022-09-09T00:23:27;101033.97;;;8.18;71.50
71126;BME280;58785;55.566;38.058;2022-09-09T00:29:01;101024.75;;;8.24;71.10
71126;BME280;58785;55.566;38.058;2022-09-09T00:31:30;101032.81;;;8.22;70.97
71126;BME280;58785;55.566;38.058;2022-09-09T00:34:18;101035.78;;;8.18;71.03
71126;BME280;58785;55.566;38.058;2022-09-09T00:36:45;101028.06;;;8.15;71.27
71126;BME280;58785;55.566;38.058;2022-09-09T00:39:41;101022.44;;;8.06;71.29
71126;BME280;58785;55.566;38.058;2022-09-09T00:44:47;101032.09;;;8.07;70.95
71126;BME280;58785;55.566;38.058;2022-09-09T00:47:33;101031.59;;;8.02;71.46
71126;BME280;58785;55.566;38.058;2022-09-09T00:53:05;101037.75;;;8.03;71.13
71126;BME280;58785;55.566;38.058;2022-09-09T00:58:07;101031.47;;;8.04;71.58
71126;BME280;58785;55.566;38.058;2022-09-09T01:00:43;101045.91;;;8.13;70.99
71126;BME280;58785;55.566;38.058;2022-09-09T01:03:22;101040.69;;;8.11;71.24
71126;BME280;58785;55.566;38.058;2022-09-09T01:14:41;101049.19;;;8.16;70.82
71126;BME280;58785;55.566;38.058;2022-09-09T01:25:29;101065.09;;;8.29;70.86
71126;BME280;58785;55.566;38.058;2022-09-09T01:27:59;101059.47;;;8.33;70.77
71126;BME280;58785;55.566;38.058;2022-09-09T01:30:28;101062.03;;;8.35;70.97
71126;BME280;58785;55.566;38.058;2022-09-09T01:32:56;101052.47;;;8.32;71.16
71126;BME280;58785;55.566;38.058;2022-09-09T01:37:52;101071.59;;;8.38;71.41
71126;BME280;58785;55.566;38.058;2022-09-09T01:40:18;101061.81;;;8.38;70.97
71126;BME280;58785;55.566;38.058;2022-09-09T01:42:43;101073.19;;;8.40;71.45
71126;BME280;58785;55.566;38.058;2022-09-09T01:45:09;101082.31;;;8.49;70.83
71126;BME280;58785;55.566;38.058;2022-09-09T01:47:35;101084.84;;;8.50;71.21
71126;BME280;58785;55.566;38.058;2022-09-09T01:50:01;101078.19;;;8.45;71.21
71126;BME280;58785;55.566;38.058;2022-09-09T01:52:31;101077.88;;;8.37;70.96
71126;BME280;58785;55.566;38.058;2022-09-09T01:54:59;101073.72;;;8.32;71.25
71126;BME280;58785;55.566;38.058;2022-09-09T01:57:28;101083.31;;;8.35;71.23
71126;BME280;58785;55.566;38.058;2022-09-09T02:00:06;101072.88;;;8.32;71.41
71126;BME280;58785;55.566;38.058;2022-09-09T02:05:38;101087.78;;;8.22;71.31
71126;BME280;58785;55.566;38.058;2022-09-09T02:08:20;101087.84;;;8.20;71.93
71126;BME280;58785;55.566;38.058;2022-09-09T02:10:56;101091.16;;;8.24;71.38
71126;BME280;58785;55.566;38.058;2022-09-09T02:13:25;101089.00;;;8.29;71.23
71126;BME280;58785;55.566;38.058;2022-09-09T02:19:00;101089.84;;;8.29;71.05
71126;BME280;58785;55.566;38.058;2022-09-09T02:21:29;101083.59;;;8.30;71.56
71126;BME280;58785;55.566;38.058;2022-09-09T02:23:57;101091.91;;;8.26;71.90
71126;BME280;58785;55.566;38.058;2022-09-09T02:26:26;101090.72;;;8.17;71.67
71126;BME280;58785;55.566;38.058;2022-09-09T02:28:55;101093.38;;;8.17;71.92
71126;BME280;58785;55.566;38.058;2022-09-09T02:31:24;101101.69;;;8.13;72.01
71126;BME280;58785;55.566;38.058;2022-09-09T02:34:00;101105.19;;;8.13;72.22
71126;BME280;58785;55.566;38.058;2022-09-09T02:36:29;101094.88;;;8.08;72.23
71126;BME280;58785;55.566;38.058;2022-09-09T02:38:56;101104.34;;;8.13;72.17
71126;BME280;58785;55.566;38.058;2022-09-09T02:41:29;101101.78;;;8.11;72.21
71126;BME280;58785;55.566;38.058;2022-09-09T02:43:56;101117.53;;;8.14;72.16
71126;BME280;58785;55.566;38.058;2022-09-09T02:52:18;101115.28;;;7.95;72.06
71126;BME280;58785;55.566;38.058;2022-09-09T02:54:47;101135.06;;;8.04;72.46
71126;BME280;58785;55.566;38.058;2022-09-09T02:57:24;101130.78;;;7.89;72.46
71126;BME280;58785;55.566;38.058;2022-09-09T02:59:53;101140.44;;;7.90;72.18
71126;BME280;58785;55.566;38.058;2022-09-09T03:02:22;101134.72;;;7.83;73.03
71126;BME280;58785;55.566;38.058;2022-09-09T03:04:48;101140.03;;;7.83;72.88
71126;BME280;58785;55.566;38.058;2022-09-09T03:07:18;101138.41;;;7.81;72.48
71126;BME280;58785;55.566;38.058;2022-09-09T03:09:43;101138.75;;;7.76;72.34
71126;BME280;58785;55.566;38.058;2022-09-09T03:12:10;101152.75;;;7.78;72.72
71126;BME280;58785;55.566;38.058;2022-09-09T03:14:37;101158.28;;;7.75;73.04
71126;BME280;58785;55.566;38.058;2022-09-09T03:17:06;101148.41;;;7.77;72.76
71126;BME280;58785;55.566;38.058;2022-09-09T03:19:32;101150.44;;;7.86;72.08
71126;BME280;58785;55.566;38.058;2022-09-09T03:21:58;101155.53;;;7.89;72.25
71126;BME280;58785;55.566;38.058;2022-09-09T03:24:24;101150.97;;;7.91;72.63
71126;BME280;58785;55.566;38.058;2022-09-09T03:26:50;101151.72;;;7.93;72.28
71126;BME280;58785;55.566;38.058;2022-09-09T03:29:16;101148.63;;;7.99;71.76
71126;BME280;58785;55.566;38.058;2022-09-09T03:31:43;101153.44;;;8.07;71.51
71126;BME280;58785;55.566;38.058;2022-09-09T03:34:09;101153.31;;;8.08;72.07
71126;BME280;58785;55.566;38.058;2022-09-09T03:36:35;101160.44;;;8.21;71.31
71126;BME280;58785;55.566;38.058;2022-09-09T03:39:01;101152.47;;;8.33;71.48
71126;BME280;58785;55.566;38.058;2022-09-09T03:41:29;101163.44;;;8.54;70.88
71126;BME280;58785;55.566;38.058;2022-09-09T03:43:55;101163.84;;;8.74;70.45
71126;BME280;58785;55.566;38.058;2022-09-09T03:46:22;101160.06;;;8.89;69.84
71126;BME280;58785;55.566;38.058;2022-09-09T03:48:48;101166.28;;;9.13;69.68
71126;BME280;58785;55.566;38.058;2022-09-09T03:51:14;101163.19;;;9.31;68.98
71126;BME280;58785;55.566;38.058;2022-09-09T03:53:41;101168.66;;;9.53;68.85
71126;BME280;58785;55.566;38.058;2022-09-09T03:56:08;101175.59;;;9.67;68.64
71126;BME280;58785;55.566;38.058;2022-09-09T03:58:35;101172.22;;;9.76;68.13
71126;BME280;58785;55.566;38.058;2022-09-09T04:01:09;101176.22;;;9.82;68.07
71126;BME280;58785;55.566;38.058;2022-09-09T04:03:35;101183.53;;;9.91;67.76
71126;BME280;58785;55.566;38.058;2022-09-09T04:06:02;101177.97;;;9.94;67.31
71126;BME280;58785;55.566;38.058;2022-09-09T04:08:29;101193.28;;;10.03;67.92
71126;BME280;58785;55.566;38.058;2022-09-09T04:10:59;101190.84;;;10.11;67.31
71126;BME280;58785;55.566;38.058;2022-09-09T04:13:25;101182.97;;;10.21;66.97
71126;BME280;58785;55.566;38.058;2022-09-09T04:15:53;101185.47;;;10.35;66.77
71126;BME280;58785;55.566;38.058;2022-09-09T04:18:22;101184.63;;;10.46;66.04
71126;BME280;58785;55.566;38.058;2022-09-09T04:20:50;101186.72;;;10.53;66.30
71126;BME280;58785;55.566;38.058;2022-09-09T04:23:16;101197.13;;;10.56;65.44
71126;BME280;58785;55.566;38.058;2022-09-09T04:25:48;101201.25;;;10.60;65.99
71126;BME280;58785;55.566;38.058;2022-09-09T04:28:18;101191.53;;;10.71;64.90
71126;BME280;58785;55.566;38.058;2022-09-09T04:30:45;101191.06;;;10.77;65.63
71126;BME280;58785;55.566;38.058;2022-09-09T04:33:11;101193.00;;;10.75;65.08
71126;BME280;58785;55.566;38.058;2022-09-09T04:35:37;101195.69;;;10.63;65.28
71126;BME280;58785;55.566;38.058;2022-09-09T04:38:04;101193.25;;;10.60;64.66
71126;BME280;58785;55.566;38.058;2022-09-09T04:40:31;101194.19;;;10.71;64.70
71126;BME280;58785;55.566;38.058;2022-09-09T04:43:01;101198.34;;;10.75;64.20
71126;BME280;58785;55.566;38.058;2022-09-09T04:45:30;101197.00;;;10.80;64.43
71126;BME280;58785;55.566;38.058;2022-09-09T04:47:56;101206.91;;;11.01;63.85
71126;BME280;58785;55.566;38.058;2022-09-09T04:50:22;101197.31;;;11.09;63.11
71126;BME280;58785;55.566;38.058;2022-09-09T04:52:47;101203.72;;;11.29;63.57
71126;BME280;58785;55.566;38.058;2022-09-09T04:55:13;101203.84;;;11.28;62.83
71126;BME280;58785;55.566;38.058;2022-09-09T04:57:40;101212.66;;;11.39;62.71
71126;BME280;58785;55.566;38.058;2022-09-09T05:00:06;101214.94;;;11.55;62.60
71126;BME280;58785;55.566;38.058;2022-09-09T05:02:32;101214.41;;;11.61;62.13
71126;BME280;58785;55.566;38.058;2022-09-09T05:04:58;101236.63;;;11.62;61.50
71126;BME280;58785;55.566;38.058;2022-09-09T05:07:32;101216.06;;;11.52;61.35
71126;BME280;58785;55.566;38.058;2022-09-09T05:09:58;101224.78;;;11.55;61.39
71126;BME280;58785;55.566;38.058;2022-09-09T05:12:25;101216.31;;;11.70;61.15
71126;BME280;58785;55.566;38.058;2022-09-09T05:14:51;101228.06;;;11.90;60.58
71126;BME280;58785;55.566;38.058;2022-09-09T05:17:17;101233.41;;;12.11;60.60
71126;BME280;58785;55.566;38.058;2022-09-09T05:19:43;101232.56;;;12.31;59.88
71126;BME280;58785;55.566;38.058;2022-09-09T05:22:09;101228.88;;;12.44;59.73
71126;BME280;58785;55.566;38.058;2022-09-09T05:24:36;101229.66;;;12.34;59.43
71126;BME280;58785;55.566;38.058;2022-09-09T05:27:02;101234.53;;;12.29;59.31
71126;BME280;58785;55.566;38.058;2022-09-09T05:29:27;101224.47;;;12.22;59.12
71126;BME280;58785;55.566;38.058;2022-09-09T05:31:53;101229.84;;;12.22;59.57
71126;BME280;58785;55.566;38.058;2022-09-09T05:34:19;101239.25;;;12.37;58.73
71126;BME280;58785;55.566;38.058;2022-09-09T05:36:46;101234.72;;;12.37;58.74
71126;BME280;58785;55.566;38.058;2022-09-09T05:39:12;101236.75;;;12.45;57.99
71126;BME280;58785;55.566;38.058;2022-09-09T05:41:38;101230.00;;;12.51;58.12
71126;BME280;58785;55.566;38.058;2022-09-09T05:44:04;101241.91;;;12.58;57.71
71126;BME280;58785;55.566;38.058;2022-09-09T05:46:30;101244.75;;;12.66;57.91
71126;BME280;58785;55.566;38.058;2022-09-09T05:48:56;101245.00;;;12.84;57.29
71126;BME280;58785;55.566;38.058;2022-09-09T05:51:24;101245.88;;;12.94;56.90
71126;BME280;58785;55.566;38.058;2022-09-09T05:53:50;101244.72;;;12.87;56.63
71126;BME280;58785;55.566;38.058;2022-09-09T05:56:24;101245.31;;;13.00;56.59
71126;BME280;58785;55.566;38.058;2022-09-09T05:58:50;101245.47;;;12.99;56.14
71126;BME280;58785;55.566;38.058;2022-09-09T06:01:21;101255.09;;;13.11;55.92
71126;BME280;58785;55.566;38.058;2022-09-09T06:03:49;101262.53;;;13.07;54.95
71126;BME280;58785;55.566;38.058;2022-09-09T06:06:17;101251.47;;;12.91;55.15
71126;BME280;58785;55.566;38.058;2022-09-09T06:08:46;101242.59;;;12.90;55.36
71126;BME280;58785;55.566;38.058;2022-09-09T06:11:17;101251.13;;;13.05;55.46
71126;BME280;58785;55.566;38.058;2022-09-09T06:13:43;101252.59;;;13.19;54.93
71126;BME280;58785;55.566;38.058;2022-09-09T06:16:14;101250.63;;;13.21;54.58
71126;BME280;58785;55.566;38.058;2022-09-09T06:18:41;101247.97;;;13.31;54.16
71126;BME280;58785;55.566;38.058;2022-09-09T06:21:11;101249.84;;;13.49;54.03
71126;BME280;58785;55.566;38.058;2022-09-09T06:23:39;101259.38;;;13.73;53.64
71126;BME280;58785;55.566;38.058;2022-09-09T06:26:11;101261.75;;;13.66;52.88
71126;BME280;58785;55.566;38.058;2022-09-09T06:28:37;101263.59;;;13.75;52.94
71126;BME280;58785;55.566;38.058;2022-09-09T06:31:05;101256.41;;;13.86;52.84
71126;BME280;58785;55.566;38.058;2022-09-09T06:33:36;101251.75;;;13.97;52.74
71126;BME280;58785;55.566;38.058;2022-09-09T06:36:04;101264.00;;;14.09;52.27
71126;BME280;58785;55.566;38.058;2022-09-09T06:38:30;101257.25;;;14.05;52.22
71126;BME280;58785;55.566;38.058;2022-09-09T06:40:57;101264.84;;;14.10;51.62
71126;BME280;58785;55.566;38.058;2022-09-09T06:43:24;101266.53;;;13.82;51.78
71126;BME280;58785;55.566;38.058;2022-09-09T06:48:19;101266.50;;;13.63;50.87
71126;BME280;58785;55.566;38.058;2022-09-09T06:50:45;101262.59;;;13.76;50.94
71126;BME280;58785;55.566;38.058;2022-09-09T06:53:11;101273.03;;;13.79;50.51
71126;BME280;58785;55.566;38.058;2022-09-09T06:55:37;101274.19;;;13.96;50.29
71126;BME280;58785;55.566;38.058;2022-09-09T06:58:08;101271.78;;;13.93;50.19
71126;BME280;58785;55.566;38.058;2022-09-09T07:00:34;101282.44;;;13.45;50.18
71126;BME280;58785;55.566;38.058;2022-09-09T07:02:59;101268.94;;;13.16;50.69
71126;BME280;58785;55.566;38.058;2022-09-09T07:05:27;101271.56;;;13.06;50.82
71126;BME280;58785;55.566;38.058;2022-09-09T07:07:53;101284.22;;;13.25;50.39
71126;BME280;58785;55.566;38.058;2022-09-09T07:10:18;101286.44;;;13.20;50.32
71126;BME280;58785;55.566;38.058;2022-09-09T07:12:46;101279.56;;;12.97;50.64
71126;BME280;58785;55.566;38.058;2022-09-09T07:15:15;101281.91;;;12.90;50.78
71126;BME280;58785;55.566;38.058;2022-09-09T07:17:40;101288.72;;;12.94;50.60
71126;BME280;58785;55.566;38.058;2022-09-09T07:20:06;101280.63;;;13.15;49.30
71126;BME280;58785;55.566;38.058;2022-09-09T07:22:34;101301.09;;;13.56;48.20
71126;BME280;58785;55.566;38.058;2022-09-09T07:25:00;101293.03;;;13.56;47.71
71126;BME280;58785;55.566;38.058;2022-09-09T07:27:28;101287.34;;;13.40;47.86
71126;BME280;58785;55.566;38.058;2022-09-09T07:29:56;101296.47;;;12.97;47.42
71126;BME280;58785;55.566;38.058;2022-09-09T07:32:23;101288.19;;;12.79;48.08
71126;BME280;58785;55.566;38.058;2022-09-09T07:34:48;101297.13;;;12.89;48.08
71126;BME280;58785;55.566;38.058;2022-09-09T07:37:15;101304.66;;;13.26;47.98
71126;BME280;58785;55.566;38.058;2022-09-09T07:39:42;101309.97;;;13.57;47.23
71126;BME280;58785;55.566;38.058;2022-09-09T07:42:07;101304.22;;;13.90;46.75
71126;BME280;58785;55.566;38.058;2022-09-09T07:44:37;101297.63;;;14.04;46.22
71126;BME280;58785;55.566;38.058;2022-09-09T07:47:05;101317.50;;;14.11;45.83
71126;BME280;58785;55.566;38.058;2022-09-09T07:49:31;101309.19;;;14.24;45.63
71126;BME280;58785;55.566;38.058;2022-09-09T07:51:58;101312.00;;;14.32;45.15
71126;BME280;58785;55.566;38.058;2022-09-09T07:54:24;101321.47;;;14.26;45.12
71126;BME280;58785;55.566;38.058;2022-09-09T07:56:51;101310.47;;;14.20;44.98
71126;BME280;58785;55.566;38.058;2022-09-09T07:59:17;101310.47;;;14.20;45.18
71126;BME280;58785;55.566;38.058;2022-09-09T08:01:46;101318.94;;;14.34;44.67
71126;BME280;58785;55.566;38.058;2022-09-09T08:04:17;101318.06;;;14.63;44.85
71126;BME280;58785;55.566;38.058;2022-09-09T08:06:47;101329.38;;;14.76;43.96
71126;BME280;58785;55.566;38.058;2022-09-09T08:09:13;101325.13;;;14.83;43.88
71126;BME280;58785;55.566;38.058;2022-09-09T08:11:40;101319.56;;;14.94;44.47
71126;BME280;58785;55.566;38.058;2022-09-09T08:14:07;101319.94;;;15.09;43.47
71126;BME280;58785;55.566;38.058;2022-09-09T08:16:36;101315.66;;;15.16;42.94
71126;BME280;58785;55.566;38.058;2022-09-09T08:19:03;101324.63;;;15.07;43.41
71126;BME280;58785;55.566;38.058;2022-09-09T08:21:31;101327.16;;;15.09;43.86
71126;BME280;58785;55.566;38.058;2022-09-09T08:24:01;101332.03;;;14.86;44.41
71126;BME280;58785;55.566;38.058;2022-09-09T08:26:32;101336.03;;;14.43;45.07
71126;BME280;58785;55.566;38.058;2022-09-09T08:29:03;101332.63;;;14.12;45.56
71126;BME280;58785;55.566;38.058;2022-09-09T08:31:32;101323.31;;;13.97;45.79
71126;BME280;58785;55.566;38.058;2022-09-09T08:33:59;101333.84;;;13.79;45.86
71126;BME280;58785;55.566;38.058;2022-09-09T08:36:27;101328.75;;;13.66;45.45
71126;BME280;58785;55.566;38.058;2022-09-09T08:38:55;101338.59;;;13.56;45.75
71126;BME280;58785;55.566;38.058;2022-09-09T08:41:56;101334.25;;;13.65;45.43
71126;BME280;58785;55.566;38.058;2022-09-09T08:50:28;101334.91;;;14.65;44.09
71126;BME280;58785;55.566;38.058;2022-09-09T08:55:41;101337.00;;;14.03;45.58
71126;BME280;58785;55.566;38.058;2022-09-09T08:58:31;101339.91;;;13.81;45.72
71126;BME280;58785;55.566;38.058;2022-09-09T09:09:18;101345.97;;;13.64;46.32
71126;BME280;58785;55.566;38.058;2022-09-09T09:11:57;101337.09;;;13.92;46.54
71126;BME280;58785;55.566;38.058;2022-09-09T09:14:28;101339.56;;;14.44;45.54
71126;BME280;58785;55.566;38.058;2022-09-09T09:17:00;101341.34;;;14.82;44.90
71126;BME280;58785;55.566;38.058;2022-09-09T09:19:28;101330.78;;;15.17;44.08
71126;BME280;58785;55.566;38.058;2022-09-09T09:22:14;101337.41;;;15.23;42.57
71126;BME280;58785;55.566;38.058;2022-09-09T09:24:50;101345.28;;;14.97;44.17
71126;BME280;58785;55.566;38.058;2022-09-09T09:27:31;101349.19;;;14.46;44.21
71126;BME280;58785;55.566;38.058;2022-09-09T09:30:00;101344.19;;;14.13;45.38
71126;BME280;58785;55.566;38.058;2022-09-09T09:32:29;101348.47;;;14.25;45.57
71126;BME280;58785;55.566;38.058;2022-09-09T09:34:58;101338.41;;;14.07;45.73
71126;BME280;58785;55.566;38.058;2022-09-09T09:37:30;101340.25;;;13.97;46.04
71126;BME280;58785;55.566;38.058;2022-09-09T09:40:08;101338.41;;;13.98;45.69
71126;BME280;58785;55.566;38.058;2022-09-09T09:42:35;101340.78;;;13.91;46.14
71126;BME280;58785;55.566;38.058;2022-09-09T09:45:25;101341.09;;;13.98;44.93
71126;BME280;58785;55.566;38.058;2022-09-09T09:48:19;101335.75;;;14.36;45.50
71126;BME280;58785;55.566;38.058;2022-09-09T09:50:55;101342.50;;;14.79;45.52
71126;BME280;58785;55.566;38.058;2022-09-09T09:56:01;101341.31;;;15.38;44.42
71126;BME280;58785;55.566;38.058;2022-09-09T09:58:31;101334.72;;;15.23;43.78
71126;BME280;58785;55.566;38.058;2022-09-09T10:00:59;101347.00;;;14.88;44.34
71126;BME280;58785;55.566;38.058;2022-09-09T10:03:28;101342.13;;;14.64;44.68
71126;BME280;58785;55.566;38.058;2022-09-09T10:05:55;101341.28;;;14.54;45.20
71126;BME280;58785;55.566;38.058;2022-09-09T10:08:25;101341.69;;;14.59;45.21
71126;BME280;58785;55.566;38.058;2022-09-09T10:19:33;101348.31;;;14.65;45.07
71126;BME280;58785;55.566;38.058;2022-09-09T10:22:27;101344.66;;;14.47;45.12
71126;BME280;58785;55.566;38.058;2022-09-09T10:33:37;101341.69;;;14.50;45.88
71126;BME280;58785;55.566;38.058;2022-09-09T10:36:27;101343.50;;;14.30;45.80
71126;BME280;58785;55.566;38.058;2022-09-09T10:39:01;101345.91;;;14.23;46.28
71126;BME280;58785;55.566;38.058;2022-09-09T10:52:15;101347.75;;;14.61;44.63
71126;BME280;58785;55.566;38.058;2022-09-09T10:57:42;101348.81;;;14.98;43.24
71126;BME280;58785;55.566;38.058;2022-09-09T11:03:03;101347.66;;;15.00;43.91
71126;BME280;58785;55.566;38.058;2022-09-09T11:05:43;101347.19;;;14.68;44.80
71126;BME280;58785;55.566;38.058;2022-09-09T11:08:15;101353.00;;;14.53;45.44
71126;BME280;58785;55.566;38.058;2022-09-09T11:13:18;101343.25;;;14.23;46.32
71126;BME280;58785;55.566;38.058;2022-09-09T11:15:50;101352.53;;;14.19;45.97
71126;BME280;58785;55.566;38.058;2022-09-09T11:18:21;101352.97;;;14.15;45.65
71126;BME280;58785;55.566;38.058;2022-09-09T11:20:53;101350.41;;;14.23;45.64
71126;BME280;58785;55.566;38.058;2022-09-09T11:23:54;101347.03;;;14.40;43.95
71126;BME280;58785;55.566;38.058;2022-09-09T11:26:36;101344.94;;;14.53;43.99
71126;BME280;58785;55.566;38.058;2022-09-09T11:40:09;101349.13;;;14.85;44.35
71126;BME280;58785;55.566;38.058;2022-09-09T11:42:39;101341.25;;;14.64;45.18
71126;BME280;58785;55.566;38.058;2022-09-09T11:45:20;101345.78;;;14.44;45.42
71126;BME280;58785;55.566;38.058;2022-09-09T11:47:55;101351.56;;;14.49;45.49
71126;BME280;58785;55.566;38.058;2022-09-09T11:52:48;101342.94;;;14.75;44.75
71126;BME280;58785;55.566;38.058;2022-09-09T11:55:29;101338.50;;;14.93;44.54
71126;BME280;58785;55.566;38.058;2022-09-09T11:58:02;101342.41;;;15.08;44.14
71126;BME280;58785;55.566;38.058;2022-09-09T12:02:58;101336.13;;;15.27;43.88
71126;BME280;58785;55.566;38.058;2022-09-09T12:05:34;101340.81;;;15.52;44.20
71126;BME280;58785;55.566;38.058;2022-09-09T12:08:02;101333.28;;;15.66;43.73
71126;BME280;58785;55.566;38.058;2022-09-09T12:10:31;101334.34;;;15.73;43.47
71126;BME280;58785;55.566;38.058;2022-09-09T12:13:27;101337.81;;;15.65;43.13
71126;BME280;58785;55.566;38.058;2022-09-09T12:15:55;101336.53;;;15.60;43.96
71126;BME280;58785;55.566;38.058;2022-09-09T12:18:31;101328.34;;;15.61;43.77
71126;BME280;58785;55.566;38.058;2022-09-09T12:39:51;101329.78;;;13.75;45.37
71126;BME280;58785;55.566;38.058;2022-09-09T12:42:20;101328.19;;;13.72;45.53
71126;BME280;58785;55.566;38.058;2022-09-09T12:45:00;101334.41;;;13.82;45.46
71126;BME280;58785;55.566;38.058;2022-09-09T12:50:34;101335.31;;;14.22;44.85
71126;BME280;58785;55.566;38.058;2022-09-09T12:53:07;101327.25;;;14.41;44.77
71126;BME280;58785;55.566;38.058;2022-09-09T12:55:38;101338.69;;;14.62;43.98
71126;BME280;58785;55.566;38.058;2022-09-09T12:58:05;101319.50;;;14.67;43.84
71126;BME280;58785;55.566;38.058;2022-09-09T13:00:35;101326.81;;;14.84;43.79
71126;BME280;58785;55.566;38.058;2022-09-09T13:03:13;101320.84;;;14.90;43.58
71126;BME280;58785;55.566;38.058;2022-09-09T13:05:40;101323.75;;;15.07;43.25
71126;BME280;58785;55.566;38.058;2022-09-09T13:08:10;101330.97;;;15.06;42.76
71126;BME280;58785;55.566;38.058;2022-09-09T13:10:44;101328.34;;;14.87;43.21
71126;BME280;58785;55.566;38.058;2022-09-09T13:13:23;101334.16;;;14.73;43.01
71126;BME280;58785;55.566;38.058;2022-09-09T13:15:54;101342.22;;;14.63;43.03
71126;BME280;58785;55.566;38.058;2022-09-09T13:18:28;101331.22;;;14.56;43.84
71126;BME280;58785;55.566;38.058;2022-09-09T13:20:54;101334.59;;;14.39;44.24
71126;BME280;58785;55.566;38.058;2022-09-09T13:23:33;101334.59;;;14.20;44.48
71126;BME280;58785;55.566;38.058;2022-09-09T13:26:07;101345.59;;;13.88;45.53
71126;BME280;58785;55.566;38.058;2022-09-09T13:28:47;101339.63;;;13.65;46.08
71126;BME280;58785;55.566;38.058;2022-09-09T13:31:36;101331.66;;;13.44;46.52
71126;BME280;58785;55.566;38.058;2022-09-09T13:36:38;101329.06;;;13.33;46.94
71126;BME280;58785;55.566;38.058;2022-09-09T13:39:15;101344.88;;;13.36;47.06
71126;BME280;58785;55.566;38.058;2022-09-09T13:41:46;101327.78;;;13.27;47.35
71126;BME280;58785;55.566;38.058;2022-09-09T13:44:19;101333.13;;;13.27;47.61
71126;BME280;58785;55.566;38.058;2022-09-09T13:46:59;101338.03;;;13.22;47.66
71126;BME280;58785;55.566;38.058;2022-09-09T13:49:28;101335.50;;;13.20;47.71
71126;BME280;58785;55.566;38.058;2022-09-09T13:52:04;101339.16;;;13.19;47.29
71126;BME280;58785;55.566;38.058;2022-09-09T13:54:33;101335.97;;;13.26;47.31
71126;BME280;58785;55.566;38.058;2022-09-09T13:56:58;101341.06;;;13.38;47.19
71126;BME280;58785;55.566;38.058;2022-09-09T13:59:24;101333.63;;;13.51;46.85
71126;BME280;58785;55.566;38.058;2022-09-09T14:01:51;101327.06;;;13.65;46.35
71126;BME280;58785;55.566;38.058;2022-09-09T14:04:18;101326.38;;;13.82;45.91
71126;BME280;58785;55.566;38.058;2022-09-09T14:06:46;101320.06;;;13.93;45.47
71126;BME280;58785;55.566;38.058;2022-09-09T14:09:13;101317.78;;;13.98;45.60
71126;BME280;58785;55.566;38.058;2022-09-09T14:11:39;101320.63;;;14.06;45.40
71126;BME280;58785;55.566;38.058;2022-09-09T14:14:05;101335.19;;;14.04;45.68
71126;BME280;58785;55.566;38.058;2022-09-09T14:16:34;101326.13;;;13.86;46.05
71126;BME280;58785;55.566;38.058;2022-09-09T14:18:59;101339.66;;;13.84;46.00
71126;BME280;58785;55.566;38.058;2022-09-09T14:21:26;101339.91;;;13.71;46.22
71126;BME280;58785;55.566;38.058;2022-09-09T14:23:52;101335.09;;;13.65;46.18
71126;BME280;58785;55.566;38.058;2022-09-09T14:26:19;101333.78;;;13.50;45.53
71126;BME280;58785;55.566;38.058;2022-09-09T14:28:47;101331.25;;;13.48;45.86
71126;BME280;58785;55.566;38.058;2022-09-09T14:31:13;101322.38;;;13.58;45.91
71126;BME280;58785;55.566;38.058;2022-09-09T14:33:40;101336.63;;;13.58;45.17
71126;BME280;58785;55.566;38.058;2022-09-09T14:36:06;101330.13;;;13.61;45.00
71126;BME280;58785;55.566;38.058;2022-09-09T14:38:36;101333.38;;;13.55;45.06
71126;BME280;58785;55.566;38.058;2022-09-09T14:41:06;101339.97;;;13.50;44.95
71126;BME280;58785;55.566;38.058;2022-09-09T14:43:32;101332.66;;;13.43;45.30
71126;BME280;58785;55.566;38.058;2022-09-09T14:46:05;101334.88;;;13.38;45.73
71126;BME280;58785;55.566;38.058;2022-09-09T14:48:31;101337.22;;;13.31;46.14
71126;BME280;58785;55.566;38.058;2022-09-09T14:51:05;101322.81;;;13.22;46.33
71126;BME280;58785;55.566;38.058;2022-09-09T14:53:30;101331.97;;;13.20;46.93
71126;BME280;58785;55.566;38.058;2022-09-09T14:56:03;101326.84;;;13.17;47.00
71126;BME280;58785;55.566;38.058;2022-09-09T14:58:33;101328.97;;;13.13;47.52
71126;BME280;58785;55.566;38.058;2022-09-09T15:01:05;101326.41;;;13.12;47.80
71126;BME280;58785;55.566;38.058;2022-09-09T15:03:31;101336.16;;;13.13;48.02
71126;BME280;58785;55.566;38.058;2022-09-09T15:05:57;101329.34;;;13.09;48.04
71126;BME280;58785;55.566;38.058;2022-09-09T15:08:24;101327.94;;;13.05;48.35
71126;BME280;58785;55.566;38.058;2022-09-09T15:10:58;101333.16;;;13.06;48.28
71126;BME280;58785;55.566;38.058;2022-09-09T15:13:24;101333.16;;;13.06;48.53
71126;BME280;58785;55.566;38.058;2022-09-09T15:15:50;101330.63;;;13.05;48.34
71126;BME280;58785;55.566;38.058;2022-09-09T15:18:16;101336.69;;;13.07;48.51
71126;BME280;58785;55.566;38.058;2022-09-09T15:20:45;101336.81;;;13.05;48.63
71126;BME280;58785;55.566;38.058;2022-09-09T15:23:12;101335.38;;;13.01;48.52
71126;BME280;58785;55.566;38.058;2022-09-09T15:25:37;101338.03;;;13.01;48.84
71126;BME280;58785;55.566;38.058;2022-09-09T15:28:03;101336.91;;;12.94;48.74
71126;BME280;58785;55.566;38.058;2022-09-09T15:30:29;101339.97;;;12.89;49.03